aviador You're here:

KRVS Decoded Metar

TULSA in OK, USA
Report Time2018-06-21 20:53:00
UTC Time2018-06-21 21:45:03
Flight Rules vfr VFR
WindVRB at 06 kt
Visibility9999 m
Phenomena:N/A
Clouds:Few 100 Hf
Expected CloudBase > 7,200 ft AGL from Temp-Dew spread
CeilingNone
Temp32°C (ISA +18)
Dew Point14°C (33% RH)
Heat Index31.2°C
AAT31.0°C
QNH1010 hPa
Density Alt3,058 ft
Elevation656 ft
Report Wrong Elevation
Raw Report
KRVS 212053Z VRB06KT 10SM FEW100 32/14 A2984 RMK AO2 SLP107
T03220139 56020=

Extra information for KRVS:More info

Metar Taf Metar & Taf Last 4 Metars F.Rules Stats Wind Profile Meteogram Temp Stats Airport Information Weather charts Add Link Nearby VenuesMetar ALERT Operation Metar Decoded Social comments

AIRNAV info for KRVS